キエフ/ボリースピリ の空港の天気 - METARとTAF

ボリースピリ国際空港(キエフ) ( UKBB / KBP ) - ウクライナ ボリスピリ (キエフ近郊)
飛行場実況気象(Metar)
観測時間02/17 16:30 EET (02/17 14:30 UTC)
風向・風速北西 7m/s
視程10km以上
天気現象
全天の8割程度の雲 雲底高度 980m
気温6℃
湿度70%
気圧1015hPa
METARUKBB 171430Z 32007MPS 9999 BKN032 06/01 Q1015 R36R/190055 R36L/CLRD// NOSIG
過去の天気等 Google飛行場航空写真 Wunderground天気予報

過去48時間のMETAR

飛行場予報(TAF)
発表時間: 2/17 13:01 EET (2/17 11:01 UTC)
予報対象時間: 17日14時 EET ~ 18日14時 EET
風向・風速西北西 6m/s 瞬間風速 11m/s
視程10km以上
なし
17日16時 EET ~ 17日18時 EET に徐々に
視程5000m
天気現象もや
全天の8割程度の雲 雲底高度 210m
17日18時 EET ~ 18日10時 EET に一時的に
風向・風速北北西 4m/s
視程1000m
天気現象もや
全天を覆う雲 雲底高度 90m
18日10時 EET ~ 18日12時 EET に徐々に
風向・風速北 3m/s 瞬間風速 8m/s
視程6000m
天気現象運行に影響にある天気現象が終了
全天の4割程度の雲 雲底高度 300m
TAF UKBB 171101Z 1712/1812 29006G11MPS CAVOK TX06/1712Z TNM02/1806Z
BECMG 1714/1716 5000 BR BKN007
TEMPO 1716/1808 34004MPS 1000 BR OVC003
BECMG 1808/1810 35003G08MPS 6000 NSW SCT010